createdAt,value
2019-01-29T00:01:15.128Z,95.70
2019-01-29T00:03:41.520Z,95.50
2019-01-29T00:06:08.935Z,95.50
2019-01-29T00:08:35.365Z,95.70
2019-01-29T00:11:01.668Z,95.90
2019-01-29T00:13:28.132Z,95.70
2019-01-29T00:15:54.397Z,95.60
2019-01-29T00:18:20.776Z,95.60
2019-01-29T00:20:47.046Z,95.60
2019-01-29T00:23:13.316Z,95.70
2019-01-29T00:25:39.847Z,95.70
2019-01-29T00:28:06.188Z,96.00
2019-01-29T00:30:32.568Z,96.00
2019-01-29T00:32:59.052Z,96.00
2019-01-29T00:35:25.447Z,95.90
2019-01-29T00:37:51.912Z,95.90
2019-01-29T00:40:18.380Z,95.90
2019-01-29T00:42:44.657Z,96.00
2019-01-29T00:45:14.165Z,96.00
2019-01-29T00:47:40.619Z,95.60
2019-01-29T00:50:08.844Z,95.50
2019-01-29T00:52:41.805Z,95.70
2019-01-29T00:55:06.977Z,95.70
2019-01-29T00:57:33.242Z,95.60
2019-01-29T01:00:22.168Z,95.70
2019-01-29T01:02:48.528Z,95.60
2019-01-29T01:05:15.211Z,95.60
2019-01-29T01:07:41.684Z,95.60
2019-01-29T01:10:11.397Z,95.60
2019-01-29T01:12:37.656Z,95.40
2019-01-29T01:15:07.029Z,95.20
2019-01-29T01:17:33.416Z,95.30
2019-01-29T01:19:59.667Z,95.20
2019-01-29T01:22:26.140Z,95.00
2019-01-29T01:24:52.452Z,95.00
2019-01-29T01:27:18.805Z,94.90
2019-01-29T01:29:45.072Z,95.10
2019-01-29T01:32:11.332Z,94.70
2019-01-29T01:34:37.604Z,95.00
2019-01-29T01:37:04.200Z,95.10
2019-01-29T01:39:30.703Z,95.30
2019-01-29T01:41:57.064Z,95.60
2019-01-29T01:44:23.327Z,95.20
2019-01-29T01:46:49.819Z,95.60
2019-01-29T01:49:16.138Z,95.60
2019-01-29T01:51:42.505Z,95.80
2019-01-29T01:54:08.888Z,95.60
2019-01-29T01:56:35.143Z,95.50
2019-01-29T01:59:01.495Z,95.70
2019-01-29T02:01:27.890Z,95.70
2019-01-29T02:03:54.265Z,95.70
2019-01-29T02:06:20.549Z,95.80
2019-01-29T02:08:46.828Z,95.70
2019-01-29T02:11:13.230Z,95.60
2019-01-29T02:13:39.575Z,95.90
2019-01-29T02:16:05.933Z,95.30
2019-01-29T02:18:32.275Z,95.30
2019-01-29T02:20:58.546Z,95.40
2019-01-29T02:23:24.832Z,95.20
2019-01-29T02:25:51.335Z,95.10
2019-01-29T02:28:17.705Z,95.00
2019-01-29T02:30:44.084Z,94.80
2019-01-29T02:33:10.390Z,94.50
2019-01-29T02:35:36.780Z,94.50
2019-01-29T02:38:03.168Z,94.80
2019-01-29T02:40:29.626Z,94.50
2019-01-29T02:42:56.680Z,94.70
2019-01-29T02:45:23.485Z,94.60
2019-01-29T02:47:49.950Z,94.70
2019-01-29T02:50:17.027Z,94.60
2019-01-29T02:52:43.524Z,94.40
2019-01-29T02:55:11.989Z,94.50
2019-01-29T02:57:38.447Z,94.40
2019-01-29T03:00:08.638Z,94.50
2019-01-29T03:02:35.043Z,94.30
2019-01-29T03:05:01.525Z,94.10
2019-01-29T03:07:27.890Z,94.40
2019-01-29T03:09:54.208Z,94.40
2019-01-29T03:12:20.599Z,94.10
2019-01-29T03:14:46.964Z,93.80
2019-01-29T03:17:13.345Z,94.00
2019-01-29T03:19:39.644Z,93.80
2019-01-29T03:22:06.127Z,93.80
2019-01-29T03:24:32.548Z,94.00
2019-01-29T03:26:58.916Z,94.20
2019-01-29T03:29:25.188Z,94.30
2019-01-29T03:31:51.595Z,94.30
2019-01-29T03:34:17.977Z,94.30
2019-01-29T03:36:44.529Z,94.40
2019-01-29T03:39:14.165Z,94.40
2019-01-29T03:41:40.463Z,93.90
2019-01-29T03:44:06.759Z,93.70
2019-01-29T03:46:33.116Z,94.20
2019-01-29T03:48:59.431Z,93.60
2019-01-29T03:51:25.885Z,93.80
2019-01-29T03:53:52.261Z,94.00
2019-01-29T03:56:18.547Z,94.20
2019-01-29T03:58:44.847Z,93.90
2019-01-29T04:01:11.354Z,93.60
2019-01-29T04:03:37.732Z,93.50
2019-01-29T04:06:04.245Z,94.00
2019-01-29T04:08:30.508Z,93.40
2019-01-29T04:10:56.772Z,93.50
2019-01-29T04:13:23.057Z,93.30
2019-01-29T04:15:49.597Z,93.40
2019-01-29T04:18:16.117Z,93.50
2019-01-29T04:20:42.405Z,93.50
2019-01-29T04:23:08.778Z,93.70
2019-01-29T04:25:35.176Z,94.00
2019-01-29T04:28:01.454Z,93.60
2019-01-29T04:30:27.954Z,93.50
2019-01-29T04:32:54.350Z,93.50
2019-01-29T04:35:20.727Z,93.40
2019-01-29T04:37:47.120Z,93.20
2019-01-29T04:40:15.350Z,93.30
2019-01-29T04:42:41.834Z,93.30
2019-01-29T04:45:10.721Z,93.20
2019-01-29T04:47:37.194Z,93.00
2019-01-29T04:50:06.263Z,93.40
2019-01-29T04:52:32.667Z,93.00
2019-01-29T04:54:58.948Z,93.30
2019-01-29T04:57:25.289Z,93.20
2019-01-29T04:59:51.640Z,93.00
2019-01-29T05:02:18.326Z,92.90
2019-01-29T05:04:44.620Z,93.00
2019-01-29T05:07:10.885Z,92.80
2019-01-29T05:09:37.173Z,92.60
2019-01-29T05:12:03.794Z,93.00
2019-01-29T05:14:30.126Z,93.20
2019-01-29T05:16:56.481Z,93.20
2019-01-29T05:19:22.792Z,93.00
2019-01-29T05:21:49.181Z,93.10
2019-01-29T05:24:15.465Z,93.20
2019-01-29T05:26:41.711Z,93.40
2019-01-29T05:29:07.977Z,93.50
2019-01-29T05:31:34.366Z,93.80
2019-01-29T05:34:00.623Z,93.60
2019-01-29T05:36:26.918Z,93.40
2019-01-29T05:38:53.382Z,93.40
2019-01-29T05:41:19.844Z,93.50
2019-01-29T05:43:46.134Z,93.70
2019-01-29T05:46:12.422Z,93.70
2019-01-29T05:48:38.878Z,94.10
2019-01-29T05:51:05.308Z,94.00
2019-01-29T05:53:31.688Z,93.90
2019-01-29T05:55:58.276Z,93.90
2019-01-29T05:58:24.572Z,93.90
2019-01-29T06:00:51.055Z,94.20
2019-01-29T06:03:17.368Z,94.40
2019-01-29T06:05:43.645Z,94.20
2019-01-29T06:08:10.009Z,94.00
2019-01-29T06:10:36.515Z,94.40
2019-01-29T06:13:03.415Z,94.60
2019-01-29T06:15:29.819Z,94.30
2019-01-29T06:17:56.304Z,94.70
2019-01-29T06:20:28.140Z,94.10
2019-01-29T06:22:54.527Z,94.20
2019-01-29T06:25:21.017Z,94.30
2019-01-29T06:27:47.522Z,94.70
2019-01-29T06:30:17.085Z,94.80
2019-01-29T06:32:43.670Z,94.30
2019-01-29T06:35:12.935Z,94.40
2019-01-29T06:37:39.416Z,94.50
2019-01-29T06:40:11.507Z,94.40
2019-01-29T06:42:37.989Z,94.50
2019-01-29T06:45:07.992Z,94.40
2019-01-29T06:47:34.351Z,94.40
2019-01-29T06:50:00.810Z,94.50
2019-01-29T06:52:27.288Z,94.50
2019-01-29T06:54:53.562Z,94.80
2019-01-29T06:57:19.836Z,94.60
2019-01-29T06:59:46.092Z,95.40
2019-01-29T07:02:12.481Z,95.30
2019-01-29T07:04:38.770Z,95.10
2019-01-29T07:07:05.166Z,94.90
2019-01-29T07:09:31.640Z,94.90
2019-01-29T07:11:59.345Z,95.10
2019-01-29T07:14:25.615Z,95.60
2019-01-29T07:16:56.757Z,95.80
2019-01-29T07:19:25.059Z,95.90
2019-01-29T07:21:51.478Z,96.10
2019-01-29T07:24:17.955Z,96.00
2019-01-29T07:26:44.246Z,96.20
2019-01-29T07:29:18.371Z,96.30
2019-01-29T07:31:44.734Z,96.40
2019-01-29T07:34:11.217Z,96.60
2019-01-29T07:36:37.601Z,96.50
2019-01-29T07:39:07.357Z,96.40
2019-01-29T07:41:33.645Z,96.00
2019-01-29T07:43:59.912Z,96.20
2019-01-29T07:46:26.429Z,96.40
2019-01-29T07:48:52.678Z,96.10
2019-01-29T07:51:18.972Z,96.20
2019-01-29T07:53:45.330Z,96.30
2019-01-29T07:56:11.707Z,96.40
2019-01-29T07:58:37.960Z,96.60
2019-01-29T08:01:04.440Z,96.30
2019-01-29T08:03:30.821Z,96.40
2019-01-29T08:05:57.096Z,96.20
2019-01-29T08:08:23.618Z,95.90
2019-01-29T08:10:49.874Z,96.00
2019-01-29T08:13:16.221Z,96.20
2019-01-29T08:15:42.651Z,95.90
2019-01-29T08:18:09.096Z,96.00
2019-01-29T08:20:35.481Z,96.40
2019-01-29T08:23:01.781Z,96.30
2019-01-29T08:25:28.153Z,96.20
2019-01-29T08:27:54.555Z,96.20
2019-01-29T08:30:21.066Z,96.90
2019-01-29T08:32:47.448Z,96.90
2019-01-29T08:35:15.565Z,96.60
2019-01-29T08:37:42.051Z,96.80
2019-01-29T08:40:11.212Z,96.60
2019-01-29T08:42:37.592Z,96.40
2019-01-29T08:45:07.003Z,96.10
2019-01-29T08:47:33.479Z,96.20
2019-01-29T08:49:59.894Z,96.80
2019-01-29T08:52:26.250Z,96.80
2019-01-29T08:54:52.733Z,96.90
2019-01-29T08:57:19.985Z,96.70
2019-01-29T08:59:46.268Z,96.40
2019-01-29T09:02:12.633Z,96.10
2019-01-29T09:04:39.028Z,96.00
2019-01-29T09:07:05.439Z,96.30
2019-01-29T09:09:31.705Z,96.40
2019-01-29T09:11:58.021Z,96.20
2019-01-29T09:14:24.321Z,95.90
2019-01-29T09:16:50.678Z,95.80
2019-01-29T09:19:16.972Z,96.30
2019-01-29T09:21:43.356Z,96.70
2019-01-29T09:24:09.768Z,96.20
2019-01-29T09:26:36.109Z,96.40
2019-01-29T09:29:02.802Z,96.30
2019-01-29T09:31:29.252Z,96.00
2019-01-29T09:33:55.593Z,96.00
2019-01-29T09:36:22.068Z,95.80
2019-01-29T09:38:48.451Z,95.70
2019-01-29T09:41:14.856Z,96.20
2019-01-29T09:43:41.237Z,95.60
2019-01-29T09:46:07.901Z,95.60
2019-01-29T09:48:34.258Z,95.50
2019-01-29T09:51:00.551Z,94.40
2019-01-29T09:53:26.901Z,93.90
2019-01-29T09:55:53.289Z,94.40
2019-01-29T09:58:19.564Z,94.60
2019-01-29T10:00:46.041Z,94.10
2019-01-29T10:03:12.425Z,94.00
2019-01-29T10:05:38.908Z,94.00
2019-01-29T10:08:05.459Z,93.10
2019-01-29T10:10:31.739Z,93.20
2019-01-29T10:12:58.189Z,92.90
2019-01-29T10:15:29.746Z,93.90
2019-01-29T10:17:56.204Z,93.40
2019-01-29T10:20:23.113Z,93.40
2019-01-29T10:22:49.575Z,93.80
2019-01-29T10:25:16.177Z,93.90
2019-01-29T10:27:42.652Z,94.00
2019-01-29T10:30:11.731Z,94.20
2019-01-29T10:32:38.098Z,94.00
2019-01-29T10:35:08.133Z,93.70
2019-01-29T10:37:34.484Z,93.50
2019-01-29T10:40:00.888Z,92.80
2019-01-29T10:42:27.379Z,92.40
2019-01-29T10:44:53.672Z,91.60
2019-01-29T10:47:19.969Z,91.50
2019-01-29T10:49:46.218Z,92.00
2019-01-29T10:52:12.714Z,92.00
2019-01-29T10:54:38.972Z,92.10
2019-01-29T10:57:05.430Z,92.00
2019-01-29T10:59:31.727Z,92.30
2019-01-29T11:01:58.083Z,92.10
2019-01-29T11:04:24.388Z,92.60
2019-01-29T11:06:50.661Z,92.20
2019-01-29T11:09:24.984Z,92.40
2019-01-29T11:11:45.301Z,92.40
2019-01-29T11:14:11.625Z,91.90
2019-01-29T11:16:38.067Z,91.60
2019-01-29T11:19:04.569Z,91.70
2019-01-29T11:21:31.039Z,92.00
2019-01-29T11:23:57.420Z,91.90
2019-01-29T11:26:23.787Z,92.30
2019-01-29T11:28:50.141Z,92.50
2019-01-29T11:31:16.451Z,92.40
2019-01-29T11:33:42.821Z,92.50
2019-01-29T11:36:09.212Z,92.70
2019-01-29T11:38:35.471Z,92.60
2019-01-29T11:41:01.945Z,92.40
2019-01-29T11:43:28.322Z,92.20
2019-01-29T11:45:54.893Z,92.20
2019-01-29T11:48:21.379Z,91.90
2019-01-29T11:50:47.748Z,92.10
2019-01-29T11:53:14.148Z,91.90
2019-01-29T11:55:40.620Z,92.20
2019-01-29T11:58:07.127Z,92.20
2019-01-29T12:00:37.288Z,92.00
2019-01-29T12:03:03.871Z,92.10
2019-01-29T12:05:30.344Z,92.40
2019-01-29T12:07:56.822Z,92.70
2019-01-29T12:10:23.345Z,92.20
2019-01-29T12:12:49.818Z,92.00
2019-01-29T12:15:18.207Z,92.10
2019-01-29T12:17:44.565Z,91.60
2019-01-29T12:20:13.924Z,91.90
2019-01-29T12:22:40.410Z,91.70
2019-01-29T12:25:06.967Z,91.10
2019-01-29T12:27:33.334Z,91.20
2019-01-29T12:29:59.816Z,90.30
2019-01-29T12:32:26.102Z,90.10
2019-01-29T12:34:52.386Z,89.70
2019-01-29T12:37:18.758Z,90.20
2019-01-29T12:39:45.009Z,87.60
2019-01-29T12:42:11.391Z,88.20
2019-01-29T12:44:37.753Z,86.80
2019-01-29T12:47:04.332Z,86.80
2019-01-29T12:49:30.696Z,86.50
2019-01-29T12:51:58.302Z,86.80
2019-01-29T12:54:25.919Z,88.60
2019-01-29T12:56:52.223Z,87.90
2019-01-29T12:59:18.600Z,87.50
2019-01-29T13:01:45.076Z,86.60
2019-01-29T13:04:11.389Z,85.90
2019-01-29T13:06:37.752Z,88.10
2019-01-29T13:09:06.948Z,89.00
2019-01-29T13:11:33.361Z,88.40
2019-01-29T13:13:59.823Z,86.80
2019-01-29T13:16:26.368Z,86.70
2019-01-29T13:18:52.656Z,86.40
2019-01-29T13:21:19.035Z,86.40
2019-01-29T13:23:45.305Z,85.20
2019-01-29T13:26:11.695Z,85.10
2019-01-29T13:28:37.985Z,84.00
2019-01-29T13:31:04.249Z,86.20
2019-01-29T13:33:30.538Z,85.70
2019-01-29T13:35:57.041Z,87.60
2019-01-29T13:38:23.322Z,85.70
2019-01-29T13:40:49.683Z,87.40
2019-01-29T13:43:16.053Z,86.40
2019-01-29T13:45:42.434Z,88.40
2019-01-29T13:48:08.901Z,86.80
2019-01-29T13:50:41.316Z,85.60
2019-01-29T13:53:07.596Z,87.50
2019-01-29T13:55:34.144Z,87.00
2019-01-29T13:58:00.429Z,87.90
2019-01-29T14:00:32.140Z,87.40
2019-01-29T14:02:58.821Z,86.50
2019-01-29T14:05:25.290Z,87.80
2019-01-29T14:07:51.681Z,88.30
2019-01-29T14:10:18.181Z,86.00
2019-01-29T14:12:44.649Z,86.00
2019-01-29T14:15:16.173Z,86.10
2019-01-29T14:17:42.627Z,82.90
2019-01-29T14:20:15.084Z,83.10
2019-01-29T14:22:41.379Z,84.60
2019-01-29T14:25:08.764Z,85.50
2019-01-29T14:27:35.142Z,84.50
2019-01-29T14:30:03.639Z,83.00
2019-01-29T14:32:30.086Z,82.60
2019-01-29T14:34:56.345Z,81.70
2019-01-29T14:37:22.592Z,81.80
2019-01-29T14:40:07.255Z,81.90
2019-01-29T14:42:33.526Z,81.20
2019-01-29T14:44:59.909Z,80.50
2019-01-29T14:47:26.192Z,77.40
2019-01-29T14:49:52.465Z,75.90
2019-01-29T14:52:18.830Z,74.70
2019-01-29T14:54:45.126Z,75.00
2019-01-29T14:57:11.405Z,76.10
2019-01-29T14:59:37.664Z,75.50
2019-01-29T15:02:04.058Z,74.00
2019-01-29T15:04:30.369Z,72.90
2019-01-29T15:06:56.658Z,72.40
2019-01-29T15:09:22.916Z,72.00
2019-01-29T15:11:49.349Z,72.40
2019-01-29T15:14:15.816Z,71.70
2019-01-29T15:16:46.812Z,71.10
2019-01-29T15:19:13.191Z,69.90
2019-01-29T15:21:39.701Z,69.60
2019-01-29T15:24:07.296Z,70.80
2019-01-29T15:26:33.524Z,70.60
2019-01-29T15:28:59.921Z,70.90
2019-01-29T15:31:26.309Z,69.40
2019-01-29T15:33:52.565Z,70.10
2019-01-29T15:36:19.412Z,70.00
2019-01-29T15:38:45.919Z,70.90
2019-01-29T15:41:14.183Z,70.20
2019-01-29T15:43:41.499Z,70.90
2019-01-29T15:46:08.597Z,71.20
2019-01-29T15:48:35.499Z,71.90
2019-01-29T15:51:02.552Z,72.60
2019-01-29T15:53:29.604Z,73.40
2019-01-29T15:55:56.548Z,74.00
2019-01-29T15:58:23.715Z,74.20
2019-01-29T16:00:50.197Z,74.70
2019-01-29T16:03:16.467Z,75.40
2019-01-29T16:05:42.760Z,76.00
2019-01-29T16:08:11.588Z,76.30
2019-01-29T16:10:43.364Z,76.80
2019-01-29T16:13:09.843Z,77.10
2019-01-29T16:15:36.521Z,77.60
2019-01-29T16:18:04.003Z,78.10
2019-01-29T16:20:30.427Z,78.60
2019-01-29T16:22:56.773Z,79.20
2019-01-29T16:25:26.833Z,79.70
2019-01-29T16:27:53.217Z,80.10
2019-01-29T16:30:22.068Z,80.60
2019-01-29T16:32:48.548Z,81.00
2019-01-29T16:35:20.904Z,81.20
2019-01-29T16:37:47.422Z,81.50
2019-01-29T16:40:17.204Z,81.80
2019-01-29T16:42:44.412Z,81.90
2019-01-29T16:45:17.405Z,81.70
2019-01-29T16:47:43.963Z,81.90
2019-01-29T16:50:14.055Z,82.20
2019-01-29T16:52:40.583Z,82.60
2019-01-29T16:55:10.425Z,82.90
2019-01-29T16:57:36.688Z,83.30
2019-01-29T17:00:09.498Z,83.50
2019-01-29T17:02:35.789Z,83.60
2019-01-29T17:05:02.697Z,83.80
2019-01-29T17:07:28.956Z,84.00
2019-01-29T17:09:55.477Z,84.30
2019-01-29T17:12:21.751Z,84.60
2019-01-29T17:14:49.871Z,85.10
2019-01-29T17:17:36.047Z,85.50
2019-01-29T17:20:05.529Z,85.80
2019-01-29T17:22:31.892Z,85.90
2019-01-29T17:24:58.154Z,86.40
2019-01-29T17:27:24.543Z,86.10
2019-01-29T17:29:51.045Z,86.50
2019-01-29T17:32:17.398Z,86.50
2019-01-29T17:34:43.850Z,86.70
2019-01-29T17:37:10.293Z,86.80
2019-01-29T17:39:36.656Z,87.00
2019-01-29T17:42:03.159Z,87.10
2019-01-29T17:44:29.527Z,87.50
2019-01-29T17:46:55.892Z,87.50
2019-01-29T17:49:22.170Z,87.60
2019-01-29T17:51:48.592Z,87.50
2019-01-29T17:54:14.859Z,87.70
2019-01-29T17:56:41.229Z,87.70
2019-01-29T17:59:07.689Z,87.80
2019-01-29T18:01:34.340Z,87.60
2019-01-29T18:04:00.766Z,87.30
2019-01-29T18:06:27.207Z,87.20
2019-01-29T18:08:53.626Z,87.50
2019-01-29T18:11:20.011Z,87.50
2019-01-29T18:13:46.376Z,88.00
2019-01-29T18:16:13.072Z,88.20
2019-01-29T18:18:39.488Z,88.30
2019-01-29T18:21:06.034Z,88.40
2019-01-29T18:23:32.439Z,88.50
2019-01-29T18:25:58.810Z,88.50
2019-01-29T18:28:25.460Z,88.50
2019-01-29T18:30:51.795Z,88.60
2019-01-29T18:33:18.253Z,88.50
2019-01-29T18:35:44.528Z,88.50
2019-01-29T18:38:10.911Z,88.70
2019-01-29T18:40:46.396Z,88.90
2019-01-29T18:43:12.722Z,88.50
2019-01-29T18:45:39.142Z,88.50
2019-01-29T18:48:05.592Z,88.40
2019-01-29T18:50:32.497Z,88.50
2019-01-29T18:52:58.788Z,89.20
2019-01-29T18:55:25.159Z,88.70
2019-01-29T18:57:51.538Z,88.40
2019-01-29T19:00:24.999Z,88.60
2019-01-29T19:02:51.587Z,89.00
2019-01-29T19:05:19.485Z,89.70
2019-01-29T19:07:45.956Z,89.90
2019-01-29T19:10:15.145Z,89.90
2019-01-29T19:12:41.628Z,89.80
2019-01-29T19:15:11.448Z,90.00
2019-01-29T19:17:37.918Z,90.00
2019-01-29T19:20:08.176Z,90.10
2019-01-29T19:22:34.673Z,90.20
2019-01-29T19:25:01.049Z,90.20
2019-01-29T19:27:27.366Z,90.20
2019-01-29T19:29:53.626Z,90.20
2019-01-29T19:32:19.993Z,90.00
2019-01-29T19:34:46.279Z,90.10
2019-01-29T19:37:12.540Z,90.00
2019-01-29T19:39:38.793Z,90.00
2019-01-29T19:42:05.177Z,90.00
2019-01-29T19:44:31.748Z,89.60
2019-01-29T19:46:58.022Z,89.70
2019-01-29T19:49:24.400Z,89.60
2019-01-29T19:51:50.772Z,89.30
2019-01-29T19:54:17.110Z,88.10
2019-01-29T19:56:43.469Z,88.60
2019-01-29T19:59:09.867Z,87.80
2019-01-29T20:01:36.249Z,87.90
2019-01-29T20:04:03.015Z,88.10
2019-01-29T20:06:31.013Z,88.10
2019-01-29T20:08:57.588Z,88.60
2019-01-29T20:11:23.955Z,88.90
2019-01-29T20:13:50.216Z,89.30
2019-01-29T20:16:16.621Z,89.40
2019-01-29T20:18:42.980Z,89.60
2019-01-29T20:21:09.350Z,89.70
2019-01-29T20:23:35.720Z,89.60
2019-01-29T20:26:02.248Z,89.50
2019-01-29T20:28:28.540Z,89.40
2019-01-29T20:30:54.993Z,89.10
2019-01-29T20:33:21.402Z,89.00
2019-01-29T20:35:47.865Z,88.80
2019-01-29T20:38:14.148Z,88.90
2019-01-29T20:41:00.289Z,89.10
2019-01-29T20:43:26.559Z,89.00
2019-01-29T20:45:52.817Z,89.00
2019-01-29T20:48:19.110Z,88.80
2019-01-29T20:50:45.368Z,88.60
2019-01-29T20:53:11.835Z,88.50
2019-01-29T20:55:38.101Z,88.50
2019-01-29T20:58:04.728Z,88.20
2019-01-29T21:00:33.393Z,88.00
2019-01-29T21:02:59.984Z,87.90
2019-01-29T21:05:26.487Z,87.80
2019-01-29T21:07:52.961Z,87.70
2019-01-29T21:10:20.849Z,87.70
2019-01-29T21:12:47.321Z,87.70
2019-01-29T21:15:18.583Z,87.50
2019-01-29T21:17:45.032Z,87.70
2019-01-29T21:20:13.795Z,87.80
2019-01-29T21:22:40.288Z,87.70
2019-01-29T21:25:07.659Z,87.70
2019-01-29T21:27:34.040Z,87.60
2019-01-29T21:30:00.503Z,87.60
2019-01-29T21:32:26.757Z,87.60
2019-01-29T21:34:53.054Z,87.50
2019-01-29T21:37:19.315Z,88.30
2019-01-29T21:39:45.578Z,88.30
2019-01-29T21:42:11.886Z,88.60
2019-01-29T21:44:38.287Z,89.10
2019-01-29T21:47:04.657Z,90.00
2019-01-29T21:49:31.022Z,90.10
2019-01-29T21:51:57.271Z,90.40
2019-01-29T21:54:23.557Z,90.60
2019-01-29T21:56:50.036Z,90.80
2019-01-29T21:59:16.441Z,90.90
2019-01-29T22:01:42.809Z,91.10
2019-01-29T22:04:09.291Z,91.00
2019-01-29T22:06:35.744Z,91.20
2019-01-29T22:09:23.798Z,91.30
2019-01-29T22:11:50.061Z,91.50
2019-01-29T22:14:16.441Z,91.40
2019-01-29T22:16:42.684Z,91.50
2019-01-29T22:19:08.960Z,91.40
2019-01-29T22:21:35.281Z,91.60
2019-01-29T22:24:01.551Z,91.40
2019-01-29T22:26:27.917Z,91.30
2019-01-29T22:28:54.308Z,91.20
2019-01-29T22:31:20.577Z,91.00
2019-01-29T22:33:46.858Z,91.10
2019-01-29T22:36:13.243Z,90.80
2019-01-29T22:38:39.601Z,90.60
2019-01-29T22:41:05.993Z,90.50
2019-01-29T22:43:32.270Z,90.40
2019-01-29T22:45:58.779Z,90.20
2019-01-29T22:48:25.124Z,90.00
2019-01-29T22:50:51.400Z,90.00
2019-01-29T22:53:17.728Z,89.50
2019-01-29T22:55:44.103Z,89.40
2019-01-29T22:58:10.527Z,89.30
2019-01-29T23:00:48.221Z,89.20
2019-01-29T23:03:16.212Z,89.00
2019-01-29T23:05:42.593Z,89.00
2019-01-29T23:08:08.955Z,89.20
2019-01-29T23:10:35.354Z,88.80
2019-01-29T23:13:01.917Z,89.30
2019-01-29T23:15:28.367Z,89.40
2019-01-29T23:17:54.752Z,89.30
2019-01-29T23:20:21.325Z,89.50
2019-01-29T23:22:47.776Z,89.70
2019-01-29T23:25:14.176Z,89.70
2019-01-29T23:27:40.447Z,89.90
2019-01-29T23:30:16.295Z,89.80
2019-01-29T23:32:42.762Z,90.00
2019-01-29T23:35:09.329Z,89.50
2019-01-29T23:37:35.593Z,89.40
2019-01-29T23:40:04.085Z,89.70
2019-01-29T23:42:30.405Z,90.00
2019-01-29T23:44:56.797Z,89.70
2019-01-29T23:47:23.076Z,89.70
2019-01-29T23:49:49.363Z,89.90
2019-01-29T23:52:15.642Z,90.10
2019-01-29T23:54:41.922Z,90.20
2019-01-29T23:57:08.396Z,90.30
2019-01-29T23:59:34.653Z,90.30
